createdAt,value
2022-10-05T00:01:35.383Z,9.86
2022-10-05T00:04:39.216Z,9.84
2022-10-05T00:07:48.192Z,9.78
2022-10-05T00:10:55.570Z,9.81
2022-10-05T00:14:08.150Z,9.81
2022-10-05T00:17:21.774Z,9.73
2022-10-05T00:20:32.364Z,9.72
2022-10-05T00:23:37.740Z,9.71
2022-10-05T00:26:52.655Z,9.71
2022-10-05T00:30:19.261Z,9.63
2022-10-05T00:34:00.214Z,9.65
2022-10-05T00:37:09.443Z,9.61
2022-10-05T00:40:38.253Z,9.55
2022-10-05T00:44:25.605Z,9.54
2022-10-05T00:47:49.841Z,9.49
2022-10-05T00:51:32.554Z,9.49
2022-10-05T00:55:03.202Z,9.43
2022-10-05T00:58:56.013Z,9.46
2022-10-05T01:02:13.986Z,9.49
2022-10-05T01:05:40.330Z,9.50
2022-10-05T01:08:59.701Z,9.45
2022-10-05T01:12:11.953Z,9.39
2022-10-05T01:15:27.470Z,9.45
2022-10-05T01:18:41.521Z,9.47
2022-10-05T01:22:02.106Z,9.45
2022-10-05T01:25:23.093Z,9.46
2022-10-05T01:28:31.497Z,9.41
2022-10-05T01:31:42.801Z,9.48
2022-10-05T01:34:55.162Z,9.49
2022-10-05T01:38:12.717Z,9.54
2022-10-05T01:41:30.635Z,9.57
2022-10-05T01:44:45.239Z,9.52
2022-10-05T01:47:52.610Z,9.49
2022-10-05T01:51:06.482Z,9.38
2022-10-05T01:54:23.963Z,9.32
2022-10-05T01:57:39.676Z,9.30
2022-10-05T02:00:53.162Z,9.24
2022-10-05T02:04:04.902Z,9.18
2022-10-05T02:07:15.073Z,9.18
2022-10-05T02:10:25.306Z,9.11
2022-10-05T02:13:35.013Z,9.04
2022-10-05T02:16:42.974Z,9.01
2022-10-05T02:19:51.366Z,8.96
2022-10-05T02:22:59.478Z,8.96
2022-10-05T02:26:02.998Z,8.94
2022-10-05T02:29:11.845Z,8.88
2022-10-05T02:32:22.890Z,8.79
2022-10-05T02:35:25.994Z,8.79
2022-10-05T02:38:38.271Z,8.82
2022-10-05T02:41:51.496Z,8.79
2022-10-05T02:45:05.844Z,8.76
2022-10-05T02:48:16.388Z,8.75
2022-10-05T02:51:25.554Z,8.71
2022-10-05T02:54:45.255Z,8.70
2022-10-05T02:57:59.378Z,8.67
2022-10-05T03:01:12.778Z,8.66
2022-10-05T03:04:29.377Z,8.65
2022-10-05T03:07:40.344Z,8.64
2022-10-05T03:10:50.650Z,8.67
2022-10-05T03:14:03.801Z,8.75
2022-10-05T03:17:14.695Z,8.73
2022-10-05T03:20:34.614Z,8.78
2022-10-05T03:23:50.890Z,8.76
2022-10-05T03:27:02.836Z,8.82
2022-10-05T03:30:12.499Z,8.89
2022-10-05T03:33:23.977Z,8.86
2022-10-05T03:36:35.357Z,8.93
2022-10-05T03:39:45.003Z,8.99
2022-10-05T03:43:03.202Z,9.02
2022-10-05T03:46:14.987Z,9.02
2022-10-05T03:49:26.075Z,9.10
2022-10-05T03:52:37.510Z,9.18
2022-10-05T03:55:47.086Z,9.24
2022-10-05T03:58:58.185Z,9.29
2022-10-05T04:02:04.035Z,9.33
2022-10-05T04:05:17.943Z,9.37
2022-10-05T04:08:30.412Z,9.37
2022-10-05T04:11:39.124Z,9.45
2022-10-05T04:14:47.875Z,9.41
2022-10-05T04:17:56.927Z,9.35
2022-10-05T04:21:06.039Z,9.38
2022-10-05T04:24:18.224Z,9.41
2022-10-05T04:27:25.944Z,9.39
2022-10-05T04:30:30.052Z,9.39
2022-10-05T04:33:34.225Z,9.40
2022-10-05T04:36:47.222Z,9.39
2022-10-05T04:40:09.692Z,9.45
2022-10-05T04:43:18.540Z,9.43
2022-10-05T04:46:39.315Z,9.48
2022-10-05T04:50:16.949Z,9.61
2022-10-05T04:53:40.873Z,9.59
2022-10-05T04:56:51.488Z,9.58
2022-10-05T05:00:10.284Z,9.49
2022-10-05T05:03:35.989Z,9.58
2022-10-05T05:06:48.176Z,9.56
2022-10-05T05:10:24.122Z,9.52
2022-10-05T05:14:08.431Z,9.47
2022-10-05T05:17:30.464Z,9.59
2022-10-05T05:20:49.359Z,9.63
2022-10-05T05:24:05.103Z,9.71
2022-10-05T05:27:39.889Z,9.73
2022-10-05T05:30:50.703Z,9.80
2022-10-05T05:34:07.345Z,9.81
2022-10-05T05:37:24.528Z,9.83
2022-10-05T05:40:34.041Z,9.84
2022-10-05T05:43:53.204Z,9.84
2022-10-05T05:47:04.863Z,9.90
2022-10-05T05:50:35.585Z,9.98
2022-10-05T05:53:49.169Z,10.00
2022-10-05T05:57:04.408Z,10.02
2022-10-05T06:00:19.802Z,10.13
2022-10-05T06:03:37.946Z,10.15
2022-10-05T06:06:46.957Z,10.18
2022-10-05T06:09:58.323Z,10.26
2022-10-05T06:13:18.776Z,10.26
2022-10-05T06:16:26.760Z,10.36
2022-10-05T06:19:34.551Z,10.39
2022-10-05T06:22:43.664Z,10.48
2022-10-05T06:26:10.408Z,10.51
2022-10-05T06:29:20.453Z,10.54
2022-10-05T06:32:30.663Z,10.62
2022-10-05T06:35:54.115Z,10.72
2022-10-05T06:39:29.953Z,10.76
2022-10-05T06:42:52.310Z,10.76
2022-10-05T06:46:23.831Z,10.89
2022-10-05T06:49:45.597Z,11.02
2022-10-05T06:53:31.576Z,11.10
2022-10-05T06:56:44.727Z,11.18
2022-10-05T07:00:19.498Z,11.27
2022-10-05T07:03:41.692Z,11.31
2022-10-05T07:06:54.352Z,11.41
2022-10-05T07:10:18.762Z,11.49
2022-10-05T07:13:44.057Z,11.57
2022-10-05T07:17:09.298Z,11.59
2022-10-05T07:20:20.027Z,11.65
2022-10-05T07:23:37.997Z,11.74
2022-10-05T07:26:47.281Z,11.83
2022-10-05T07:29:59.493Z,11.90
2022-10-05T07:33:14.591Z,11.96
2022-10-05T07:36:42.607Z,12.00
2022-10-05T07:40:00.438Z,12.06
2022-10-05T07:43:22.769Z,12.22
2022-10-05T07:46:30.708Z,12.33
2022-10-05T07:49:43.858Z,12.52
2022-10-05T07:52:56.472Z,12.62
2022-10-05T07:56:04.598Z,12.69
2022-10-05T07:59:17.355Z,12.64
2022-10-05T08:02:28.205Z,12.77
2022-10-05T08:05:33.865Z,12.86
2022-10-05T08:08:49.165Z,13.01
2022-10-05T08:12:00.512Z,13.15
2022-10-05T08:15:12.977Z,13.23
2022-10-05T08:18:22.851Z,13.31
2022-10-05T08:21:31.883Z,13.38
2022-10-05T08:24:44.644Z,13.50
2022-10-05T08:27:53.200Z,13.60
2022-10-05T08:31:04.382Z,13.67
2022-10-05T08:34:27.464Z,13.74
2022-10-05T08:37:35.491Z,13.82
2022-10-05T08:41:25.211Z,14.00
2022-10-05T08:45:15.745Z,14.10
2022-10-05T08:49:14.021Z,14.12
2022-10-05T08:52:29.864Z,14.23
2022-10-05T08:55:44.660Z,14.42
2022-10-05T08:59:11.703Z,14.42
2022-10-05T09:02:28.171Z,14.57
2022-10-05T09:06:14.531Z,14.69
2022-10-05T09:10:12.632Z,14.79
2022-10-05T09:13:40.678Z,14.93
2022-10-05T09:17:20.994Z,14.93
2022-10-05T09:20:32.216Z,15.06
2022-10-05T09:23:42.929Z,15.18
2022-10-05T09:27:00.433Z,15.21
2022-10-05T09:30:26.949Z,15.37
2022-10-05T09:34:19.084Z,15.49
2022-10-05T09:37:46.323Z,15.52
2022-10-05T09:41:35.142Z,15.64
2022-10-05T09:45:36.161Z,15.65
2022-10-05T09:49:10.938Z,15.64
2022-10-05T09:52:37.686Z,15.68
2022-10-05T10:00:10.380Z,15.93
2022-10-05T10:04:17.165Z,16.05
2022-10-05T10:08:05.702Z,16.19
2022-10-05T10:11:24.875Z,16.30
2022-10-05T10:15:29.269Z,16.24
2022-10-05T10:18:55.646Z,16.28
2022-10-05T10:22:33.958Z,16.30
2022-10-05T10:26:06.523Z,16.28
2022-10-05T10:29:34.755Z,16.20
2022-10-05T10:33:18.926Z,16.48
2022-10-05T10:36:38.286Z,16.60
2022-10-05T10:40:04.839Z,16.62
2022-10-05T10:43:35.139Z,16.73
2022-10-05T10:46:51.017Z,16.86
2022-10-05T10:50:26.228Z,16.87
2022-10-05T10:53:42.458Z,16.94
2022-10-05T10:56:55.428Z,17.10
2022-10-05T11:00:35.020Z,17.11
2022-10-05T11:04:24.368Z,17.38
2022-10-05T11:07:55.010Z,17.57
2022-10-05T11:11:22.115Z,17.74
2022-10-05T11:14:51.580Z,17.85
2022-10-05T11:18:10.266Z,18.20
2022-10-05T11:21:30.370Z,18.63
2022-10-05T11:24:59.702Z,19.12
2022-10-05T11:28:28.419Z,19.24
2022-10-05T11:32:02.359Z,19.09
2022-10-05T11:35:40.012Z,19.13
2022-10-05T11:39:25.568Z,19.11
2022-10-05T11:42:57.371Z,19.89
2022-10-05T11:46:11.743Z,20.33
2022-10-05T11:49:29.340Z,20.06
2022-10-05T11:52:39.214Z,19.70
2022-10-05T11:55:46.643Z,19.95
2022-10-05T11:58:57.491Z,19.69
2022-10-05T12:03:10.802Z,19.43
2022-10-05T12:07:03.510Z,19.24
2022-10-05T12:10:24.783Z,19.03
2022-10-05T12:13:41.748Z,19.06
2022-10-05T12:16:52.889Z,19.19
2022-10-05T12:19:59.898Z,19.50
2022-10-05T12:23:11.541Z,19.78
2022-10-05T12:26:17.822Z,20.21
2022-10-05T12:29:28.391Z,20.68
2022-10-05T12:32:37.237Z,20.93
2022-10-05T12:35:49.023Z,21.07
2022-10-05T12:38:59.401Z,21.16
2022-10-05T12:42:17.144Z,21.50
2022-10-05T12:45:36.509Z,21.89
2022-10-05T12:49:28.588Z,21.86
2022-10-05T12:52:50.758Z,21.88
2022-10-05T12:56:02.813Z,21.77
2022-10-05T12:59:17.581Z,21.93
2022-10-05T13:02:36.790Z,21.60
2022-10-05T13:05:49.768Z,22.15
2022-10-05T13:09:00.163Z,22.07
2022-10-05T13:12:10.084Z,22.19
2022-10-05T13:15:21.462Z,21.99
2022-10-05T13:18:35.928Z,21.88
2022-10-05T13:22:02.775Z,21.71
2022-10-05T13:25:21.697Z,21.55
2022-10-05T13:28:32.455Z,21.58
2022-10-05T13:31:42.259Z,21.92
2022-10-05T13:34:56.012Z,22.21
2022-10-05T13:38:14.636Z,22.01
2022-10-05T13:41:30.712Z,22.11
2022-10-05T13:44:43.820Z,22.37
2022-10-05T13:48:06.744Z,22.70
2022-10-05T13:51:20.324Z,22.31
2022-10-05T13:54:33.710Z,22.28
2022-10-05T13:57:49.642Z,22.16
2022-10-05T14:00:56.369Z,22.06
2022-10-05T14:04:19.074Z,21.73
2022-10-05T14:07:32.229Z,22.00
2022-10-05T14:10:41.984Z,22.06
2022-10-05T14:13:48.589Z,22.05
2022-10-05T14:16:54.431Z,21.86
2022-10-05T14:20:03.379Z,22.12
2022-10-05T14:23:18.542Z,22.01
2022-10-05T14:26:36.820Z,21.94
2022-10-05T14:29:40.146Z,21.95
2022-10-05T14:32:51.596Z,21.71
2022-10-05T14:35:57.499Z,21.57
2022-10-05T14:39:05.022Z,21.65
2022-10-05T14:42:18.076Z,21.55
2022-10-05T14:45:23.599Z,21.69
2022-10-05T14:48:28.849Z,21.75
2022-10-05T14:51:33.582Z,22.12
2022-10-05T14:54:52.327Z,21.98
2022-10-05T14:58:23.851Z,22.11
2022-10-05T15:01:34.170Z,22.18
2022-10-05T15:04:43.712Z,22.02
2022-10-05T15:07:50.271Z,21.69
2022-10-05T15:11:01.814Z,21.31
2022-10-05T15:14:15.921Z,20.89
2022-10-05T15:17:28.421Z,20.17
2022-10-05T15:20:43.726Z,20.18
2022-10-05T15:23:53.167Z,20.05
2022-10-05T15:27:00.305Z,20.02
2022-10-05T15:30:11.142Z,19.79
2022-10-05T15:33:22.490Z,19.73
2022-10-05T15:36:35.628Z,19.57
2022-10-05T15:39:48.349Z,19.39
2022-10-05T15:42:57.075Z,19.32
2022-10-05T15:46:08.648Z,19.05
2022-10-05T15:49:25.105Z,19.02
2022-10-05T15:52:35.375Z,18.80
2022-10-05T15:55:44.264Z,18.72
2022-10-05T15:58:55.525Z,18.71
2022-10-05T16:02:02.115Z,18.89
2022-10-05T16:05:41.550Z,18.88
2022-10-05T16:09:01.513Z,18.64
2022-10-05T16:12:19.907Z,18.42
2022-10-05T16:15:33.532Z,18.12
2022-10-05T16:18:54.917Z,17.96
2022-10-05T16:22:08.197Z,18.07
2022-10-05T16:25:23.406Z,17.58
2022-10-05T16:28:39.261Z,17.45
2022-10-05T16:31:54.009Z,17.36
2022-10-05T16:35:14.778Z,17.15
2022-10-05T16:38:30.012Z,17.10
2022-10-05T16:41:42.753Z,16.88
2022-10-05T16:44:55.438Z,16.57
2022-10-05T16:48:07.469Z,16.38
2022-10-05T16:51:28.386Z,16.24
2022-10-05T16:54:37.399Z,16.10
2022-10-05T16:57:46.437Z,15.97
2022-10-05T17:01:08.903Z,15.88
2022-10-05T17:04:28.529Z,15.69
2022-10-05T17:07:53.057Z,15.62
2022-10-05T17:11:07.414Z,15.54
2022-10-05T17:14:28.005Z,15.41
2022-10-05T17:18:00.774Z,15.25
2022-10-05T17:21:12.855Z,14.99
2022-10-05T17:24:34.316Z,14.92
2022-10-05T17:27:53.408Z,14.91
2022-10-05T17:31:16.398Z,14.77
2022-10-05T17:34:28.919Z,14.62
2022-10-05T17:37:40.111Z,14.52
2022-10-05T17:41:11.373Z,14.45
2022-10-05T17:44:26.291Z,14.47
2022-10-05T17:47:56.602Z,14.42
2022-10-05T17:51:17.559Z,14.32
2022-10-05T17:54:41.936Z,14.37
2022-10-05T17:57:44.951Z,14.21
2022-10-05T18:01:30.902Z,14.18
2022-10-05T18:05:18.268Z,14.10
2022-10-05T18:17:56.629Z,13.99
2022-10-05T18:21:39.294Z,13.90
2022-10-05T18:25:03.563Z,13.76
2022-10-05T18:28:19.672Z,13.71
2022-10-05T18:31:34.262Z,13.71
2022-10-05T18:34:44.770Z,13.69
2022-10-05T18:38:01.998Z,13.67
2022-10-05T18:41:13.204Z,13.56
2022-10-05T18:44:35.706Z,13.49
2022-10-05T18:47:48.248Z,13.46
2022-10-05T18:51:00.347Z,13.49
2022-10-05T18:54:17.724Z,13.52
2022-10-05T18:58:16.011Z,13.52
2022-10-05T19:01:47.657Z,13.78
2022-10-05T19:05:29.176Z,13.70
2022-10-05T19:08:42.377Z,13.55
2022-10-05T19:11:53.445Z,13.45
2022-10-05T19:15:06.600Z,13.56
2022-10-05T19:18:26.600Z,13.58
2022-10-05T19:21:40.367Z,13.56
2022-10-05T19:24:57.202Z,13.85
2022-10-05T19:28:12.461Z,14.13
2022-10-05T19:31:31.011Z,14.49
2022-10-05T19:34:50.822Z,14.44
2022-10-05T19:38:15.509Z,14.42
2022-10-05T19:41:22.731Z,14.09
2022-10-05T19:44:46.977Z,14.12
2022-10-05T19:49:00.832Z,14.03
2022-10-05T19:52:14.431Z,14.14
2022-10-05T19:55:27.235Z,14.08
2022-10-05T19:58:34.119Z,14.02
2022-10-05T20:01:40.411Z,13.86
2022-10-05T20:04:57.935Z,13.67
2022-10-05T20:08:06.017Z,13.58
2022-10-05T20:12:12.500Z,13.53
2022-10-05T20:15:40.305Z,13.40
2022-10-05T20:23:30.064Z,13.64
2022-10-05T20:26:59.588Z,13.59
2022-10-05T20:30:25.642Z,13.87
2022-10-05T20:33:46.407Z,13.92
2022-10-05T20:36:57.357Z,13.84
2022-10-05T20:40:37.813Z,13.85
2022-10-05T20:43:45.972Z,13.87
2022-10-05T20:47:18.094Z,14.00
2022-10-05T20:50:32.861Z,14.19
2022-10-05T20:53:36.107Z,14.20
2022-10-05T20:56:39.156Z,14.15
2022-10-05T20:59:43.453Z,14.34
2022-10-05T21:02:46.789Z,14.35
2022-10-05T21:05:49.895Z,14.34
2022-10-05T21:08:54.168Z,14.17
2022-10-05T21:11:57.152Z,14.24
2022-10-05T21:15:04.616Z,14.29
2022-10-05T21:18:07.636Z,14.26
2022-10-05T21:21:11.025Z,14.39
2022-10-05T21:24:15.704Z,14.47
2022-10-05T21:27:18.651Z,14.60
2022-10-05T21:30:23.006Z,14.73
2022-10-05T21:33:26.579Z,14.85
2022-10-05T21:36:30.084Z,14.89
2022-10-05T21:39:35.098Z,14.99
2022-10-05T21:42:38.439Z,15.12
2022-10-05T21:45:43.761Z,15.09
2022-10-05T21:48:47.341Z,15.13
2022-10-05T21:51:50.285Z,15.21
2022-10-05T21:54:57.762Z,15.18
2022-10-05T21:58:16.639Z,15.17
2022-10-05T22:01:37.103Z,15.18
2022-10-05T22:04:46.628Z,15.24
2022-10-05T22:07:58.166Z,15.35
2022-10-05T22:11:14.474Z,15.43
2022-10-05T22:14:57.799Z,15.34
2022-10-05T22:18:14.000Z,15.24
2022-10-05T22:21:27.907Z,15.34
2022-10-05T22:24:36.969Z,15.34
2022-10-05T22:27:57.565Z,15.02
2022-10-05T22:31:15.813Z,15.13
2022-10-05T22:34:32.112Z,15.10
2022-10-05T22:37:59.392Z,15.17
2022-10-05T22:41:38.631Z,15.00
2022-10-05T22:44:46.124Z,14.96
2022-10-05T22:48:10.508Z,14.87
2022-10-05T22:51:19.468Z,14.89
2022-10-05T22:54:26.332Z,14.87
2022-10-05T22:57:39.143Z,14.67
2022-10-05T23:00:57.433Z,14.65
2022-10-05T23:04:01.184Z,14.64
2022-10-05T23:07:06.459Z,14.58
2022-10-05T23:10:12.888Z,14.56
2022-10-05T23:13:16.368Z,14.55
2022-10-05T23:16:22.788Z,14.46
2022-10-05T23:19:25.718Z,14.36
2022-10-05T23:22:30.035Z,14.34
2022-10-05T23:25:32.949Z,14.40
2022-10-05T23:28:35.982Z,14.28
2022-10-05T23:31:38.966Z,14.13
2022-10-05T23:34:41.882Z,14.01
2022-10-05T23:37:46.401Z,14.03
2022-10-05T23:40:49.390Z,13.95
2022-10-05T23:43:54.643Z,14.00
2022-10-05T23:46:57.598Z,13.97
2022-10-05T23:50:00.582Z,13.85
2022-10-05T23:53:05.172Z,13.65
2022-10-05T23:56:30.226Z,13.75
2022-10-05T23:59:55.846Z,13.86
